createdAt,value
2019-03-26T00:01:29.943Z,45.96
2019-03-26T00:04:05.244Z,45.68
2019-03-26T00:06:21.943Z,45.94
2019-03-26T00:08:47.954Z,45.97
2019-03-26T00:11:13.946Z,45.73
2019-03-26T00:13:39.947Z,45.92
2019-03-26T00:16:05.947Z,45.94
2019-03-26T00:18:31.947Z,45.89
2019-03-26T00:20:57.946Z,45.90
2019-03-26T00:23:23.976Z,45.84
2019-03-26T00:25:49.967Z,45.81
2019-03-26T00:28:15.963Z,45.83
2019-03-26T00:30:41.959Z,45.76
2019-03-26T00:33:07.961Z,45.57
2019-03-26T00:35:33.956Z,45.79
2019-03-26T00:38:00.034Z,45.76
2019-03-26T00:40:25.954Z,45.64
2019-03-26T00:42:51.951Z,45.73
2019-03-26T00:45:17.974Z,45.42
2019-03-26T00:47:44.007Z,45.69
2019-03-26T00:50:09.968Z,45.57
2019-03-26T00:52:35.967Z,45.63
2019-03-26T00:55:01.967Z,45.58
2019-03-26T00:57:27.960Z,45.72
2019-03-26T00:59:53.954Z,45.70
2019-03-26T01:02:19.975Z,45.67
2019-03-26T01:04:45.975Z,45.66
2019-03-26T01:07:11.963Z,45.44
2019-03-26T01:09:37.964Z,45.64
2019-03-26T01:12:03.961Z,45.59
2019-03-26T01:14:29.965Z,45.60
2019-03-26T01:16:55.961Z,45.58
2019-03-26T01:19:21.995Z,45.44
2019-03-26T01:21:47.995Z,45.58
2019-03-26T01:24:13.988Z,45.54
2019-03-26T01:26:40.000Z,45.45
2019-03-26T01:29:05.986Z,45.48
2019-03-26T01:31:31.989Z,45.30
2019-03-26T01:33:57.982Z,45.43
2019-03-26T01:36:23.986Z,45.03
2019-03-26T01:38:49.978Z,45.22
2019-03-26T01:41:15.981Z,45.40
2019-03-26T01:43:41.976Z,45.36
2019-03-26T01:46:07.998Z,45.32
2019-03-26T01:48:34.060Z,45.29
2019-03-26T01:51:00.060Z,44.82
2019-03-26T01:53:26.060Z,45.32
2019-03-26T01:55:52.050Z,45.21
2019-03-26T01:58:18.065Z,45.24
2019-03-26T02:00:44.047Z,45.22
2019-03-26T02:03:10.042Z,45.21
2019-03-26T02:05:36.042Z,45.18
2019-03-26T02:08:02.051Z,45.01
2019-03-26T02:10:28.051Z,44.99
2019-03-26T02:12:54.042Z,45.11
2019-03-26T02:15:20.052Z,45.01
2019-03-26T02:17:46.051Z,45.02
2019-03-26T02:20:12.053Z,45.01
2019-03-26T02:22:38.047Z,44.92
2019-03-26T02:25:04.066Z,44.96
2019-03-26T02:27:30.062Z,44.92
2019-03-26T02:29:56.055Z,44.89
2019-03-26T02:32:22.062Z,44.82
2019-03-26T02:34:48.052Z,44.82
2019-03-26T02:37:14.053Z,44.81
2019-03-26T02:39:40.053Z,44.80
2019-03-26T02:42:06.091Z,44.60
2019-03-26T02:44:32.090Z,44.55
2019-03-26T02:46:58.083Z,44.66
2019-03-26T02:49:24.082Z,44.59
2019-03-26T02:51:50.079Z,44.52
2019-03-26T02:54:16.090Z,44.65
2019-03-26T02:56:42.077Z,44.61
2019-03-26T02:59:08.085Z,44.56
2019-03-26T03:01:34.078Z,44.55
2019-03-26T03:04:00.110Z,44.34
2019-03-26T03:06:26.113Z,44.26
2019-03-26T03:08:52.124Z,44.42
2019-03-26T03:11:18.112Z,44.36
2019-03-26T03:13:44.108Z,44.37
2019-03-26T03:16:10.117Z,44.43
2019-03-26T03:18:36.107Z,43.60
2019-03-26T03:21:02.127Z,44.31
2019-03-26T03:23:28.119Z,44.13
2019-03-26T03:25:54.138Z,44.23
2019-03-26T03:28:20.112Z,44.34
2019-03-26T03:30:46.114Z,44.20
2019-03-26T03:33:12.108Z,44.23
2019-03-26T03:35:51.471Z,44.30
2019-03-26T03:38:04.103Z,44.23
2019-03-26T03:40:30.100Z,44.19
2019-03-26T03:42:56.107Z,44.21
2019-03-26T03:45:22.107Z,44.22
2019-03-26T03:47:48.114Z,44.17
2019-03-26T03:50:14.122Z,44.21
2019-03-26T03:52:40.117Z,44.24
2019-03-26T03:55:06.145Z,44.23
2019-03-26T03:57:32.131Z,44.18
2019-03-26T03:59:58.122Z,44.27
2019-03-26T04:02:24.123Z,44.08
2019-03-26T04:04:50.120Z,44.17
2019-03-26T04:07:16.122Z,43.90
2019-03-26T04:09:42.116Z,44.16
2019-03-26T04:12:08.116Z,44.02
2019-03-26T04:14:34.116Z,44.07
2019-03-26T04:17:00.109Z,43.43
2019-03-26T04:19:26.115Z,44.10
2019-03-26T04:21:52.111Z,43.99
2019-03-26T04:24:18.113Z,43.83
2019-03-26T04:26:44.114Z,43.97
2019-03-26T04:29:10.186Z,44.02
2019-03-26T04:31:36.201Z,43.98
2019-03-26T04:34:02.192Z,43.97
2019-03-26T04:36:28.198Z,43.92
2019-03-26T04:38:54.288Z,43.12
2019-03-26T04:41:20.213Z,43.90
2019-03-26T04:43:46.217Z,43.21
2019-03-26T04:46:12.205Z,43.03
2019-03-26T04:48:38.202Z,43.39
2019-03-26T04:51:04.200Z,43.30
2019-03-26T04:53:30.223Z,43.40
2019-03-26T04:55:56.216Z,43.42
2019-03-26T04:58:22.244Z,43.46
2019-03-26T05:00:48.249Z,44.20
2019-03-26T05:03:14.235Z,44.11
2019-03-26T05:05:40.245Z,44.11
2019-03-26T05:08:06.262Z,44.40
2019-03-26T05:10:32.286Z,44.32
2019-03-26T05:12:58.281Z,44.44
2019-03-26T05:15:24.330Z,44.34
2019-03-26T05:17:50.342Z,44.69
2019-03-26T05:20:16.369Z,44.83
2019-03-26T05:22:42.372Z,45.03
2019-03-26T05:25:08.368Z,45.01
2019-03-26T05:27:44.842Z,45.15
2019-03-26T05:30:00.401Z,44.99
2019-03-26T05:32:26.384Z,44.88
2019-03-26T05:34:52.382Z,44.97
2019-03-26T05:37:18.392Z,44.94
2019-03-26T05:39:44.392Z,45.16
2019-03-26T05:42:10.395Z,45.24
2019-03-26T05:44:36.411Z,45.50
2019-03-26T05:47:02.426Z,46.01
2019-03-26T05:49:28.425Z,46.72
2019-03-26T05:51:54.427Z,46.57
2019-03-26T05:54:20.424Z,46.60
2019-03-26T05:56:46.425Z,46.47
2019-03-26T05:59:12.434Z,46.39
2019-03-26T06:01:38.472Z,46.44
2019-03-26T06:04:04.473Z,46.55
2019-03-26T06:06:30.476Z,46.98
2019-03-26T06:08:56.515Z,46.92
2019-03-26T06:11:22.535Z,46.79
2019-03-26T06:13:48.537Z,46.53
2019-03-26T06:16:14.528Z,46.49
2019-03-26T06:18:40.530Z,46.58
2019-03-26T06:21:06.528Z,46.41
2019-03-26T06:23:32.538Z,46.39
2019-03-26T06:25:58.592Z,46.47
2019-03-26T06:28:24.600Z,46.35
2019-03-26T06:30:50.597Z,46.32
2019-03-26T06:33:16.653Z,46.48
2019-03-26T06:35:42.736Z,46.36
2019-03-26T06:38:08.731Z,46.27
2019-03-26T06:40:34.767Z,46.35
2019-03-26T06:43:00.764Z,47.12
2019-03-26T06:45:26.902Z,47.26
2019-03-26T06:47:52.921Z,46.94
2019-03-26T06:50:18.930Z,46.68
2019-03-26T06:52:44.945Z,46.70
2019-03-26T06:55:10.945Z,46.64
2019-03-26T06:57:36.941Z,46.69
2019-03-26T07:00:02.940Z,46.78
2019-03-26T07:02:28.972Z,46.70
2019-03-26T07:04:54.978Z,46.56
2019-03-26T07:07:30.808Z,46.44
2019-03-26T07:09:47.034Z,46.35
2019-03-26T07:12:13.040Z,46.33
2019-03-26T07:14:39.034Z,46.34
2019-03-26T07:17:05.079Z,46.31
2019-03-26T07:19:31.064Z,46.30
2019-03-26T07:21:57.070Z,46.28
2019-03-26T07:24:23.089Z,46.25
2019-03-26T07:26:49.089Z,46.20
2019-03-26T07:29:15.097Z,46.15
2019-03-26T07:31:41.118Z,46.10
2019-03-26T07:34:07.310Z,46.06
2019-03-26T07:36:33.122Z,46.02
2019-03-26T07:38:59.129Z,45.88
2019-03-26T07:41:25.123Z,45.88
2019-03-26T07:43:51.152Z,45.51
2019-03-26T07:46:17.179Z,45.76
2019-03-26T07:48:43.174Z,45.79
2019-03-26T07:51:09.178Z,45.71
2019-03-26T07:53:35.180Z,45.30
2019-03-26T07:56:01.186Z,45.51
2019-03-26T07:58:27.186Z,45.34
2019-03-26T08:00:53.191Z,45.52
2019-03-26T08:03:21.208Z,45.54
2019-03-26T08:05:45.189Z,45.54
2019-03-26T08:08:11.198Z,45.50
2019-03-26T08:10:37.225Z,45.40
2019-03-26T08:13:03.214Z,45.34
2019-03-26T08:15:29.199Z,45.39
2019-03-26T08:17:55.228Z,45.31
2019-03-26T08:20:21.223Z,45.23
2019-03-26T08:22:47.218Z,45.21
2019-03-26T08:25:13.222Z,45.23
2019-03-26T08:27:39.222Z,45.17
2019-03-26T08:30:05.215Z,45.09
2019-03-26T08:32:31.216Z,45.14
2019-03-26T08:34:57.240Z,44.89
2019-03-26T08:37:23.236Z,44.98
2019-03-26T08:39:49.230Z,45.01
2019-03-26T08:42:15.235Z,44.86
2019-03-26T08:44:41.228Z,44.89
2019-03-26T08:47:07.231Z,44.91
2019-03-26T08:49:33.229Z,44.87
2019-03-26T08:51:59.241Z,44.91
2019-03-26T08:54:25.229Z,44.93
2019-03-26T08:56:51.254Z,44.92
2019-03-26T08:59:17.244Z,44.84
2019-03-26T09:01:43.244Z,44.86
2019-03-26T09:04:09.257Z,44.80
2019-03-26T09:06:35.254Z,44.87
2019-03-26T09:09:01.272Z,44.81
2019-03-26T09:11:27.270Z,44.83
2019-03-26T09:13:53.402Z,44.80
2019-03-26T09:16:19.401Z,44.80
2019-03-26T09:18:45.411Z,44.57
2019-03-26T09:21:11.416Z,44.49
2019-03-26T09:23:37.416Z,44.55
2019-03-26T09:26:03.415Z,44.55
2019-03-26T09:28:29.410Z,44.41
2019-03-26T09:30:55.417Z,43.89
2019-03-26T09:33:21.413Z,43.87
2019-03-26T09:35:47.431Z,44.48
2019-03-26T09:38:13.425Z,44.25
2019-03-26T09:40:39.428Z,44.53
2019-03-26T09:43:05.446Z,44.55
2019-03-26T09:45:31.424Z,44.27
2019-03-26T09:47:57.426Z,44.53
2019-03-26T09:50:23.417Z,44.55
2019-03-26T09:52:49.415Z,44.60
2019-03-26T09:55:15.421Z,44.46
2019-03-26T09:57:41.415Z,44.50
2019-03-26T10:00:07.416Z,44.48
2019-03-26T10:02:33.412Z,44.50
2019-03-26T10:04:59.428Z,44.45
2019-03-26T10:07:25.442Z,44.18
2019-03-26T10:09:51.456Z,44.26
2019-03-26T10:12:17.456Z,44.23
2019-03-26T10:14:43.455Z,44.30
2019-03-26T10:17:09.460Z,44.23
2019-03-26T10:19:35.459Z,44.12
2019-03-26T10:22:01.465Z,43.39
2019-03-26T10:24:27.462Z,43.65
2019-03-26T10:26:53.541Z,44.09
2019-03-26T10:29:29.971Z,44.15
2019-03-26T10:31:45.602Z,44.23
2019-03-26T10:34:11.685Z,44.22
2019-03-26T10:36:37.596Z,43.96
2019-03-26T10:39:05.498Z,44.16
2019-03-26T10:41:29.602Z,44.13
2019-03-26T10:43:55.630Z,44.14
2019-03-26T10:46:21.638Z,44.17
2019-03-26T10:48:47.642Z,43.77
2019-03-26T10:51:13.643Z,44.08
2019-03-26T10:53:39.668Z,43.59
2019-03-26T10:56:05.667Z,43.40
2019-03-26T10:58:31.660Z,43.78
2019-03-26T11:00:57.660Z,43.13
2019-03-26T11:03:23.657Z,44.03
2019-03-26T11:05:49.664Z,43.57
2019-03-26T11:08:15.659Z,43.71
2019-03-26T11:10:41.666Z,44.07
2019-03-26T11:13:07.667Z,43.58
2019-03-26T11:15:33.664Z,43.64
2019-03-26T11:17:59.659Z,43.80
2019-03-26T11:20:25.659Z,43.67
2019-03-26T11:22:51.660Z,43.95
2019-03-26T11:25:17.655Z,43.75
2019-03-26T11:27:43.664Z,44.13
2019-03-26T11:30:09.670Z,44.21
2019-03-26T11:32:35.697Z,44.05
2019-03-26T11:35:01.690Z,44.13
2019-03-26T11:37:27.689Z,44.23
2019-03-26T11:42:37.555Z,44.17
2019-03-26T11:45:03.554Z,44.17
2019-03-26T11:47:29.551Z,43.99
2019-03-26T11:49:55.581Z,44.39
2019-03-26T11:52:21.608Z,44.25
2019-03-26T11:54:47.615Z,44.13
2019-03-26T11:57:13.905Z,44.26
2019-03-26T11:59:39.952Z,44.24
2019-03-26T12:02:05.946Z,44.29
2019-03-26T12:04:31.939Z,44.29
2019-03-26T12:06:57.975Z,44.04
2019-03-26T12:09:23.976Z,44.35
2019-03-26T12:11:49.966Z,44.09
2019-03-26T12:14:15.977Z,44.45
2019-03-26T12:16:41.981Z,44.43
2019-03-26T12:19:07.983Z,44.49
2019-03-26T12:21:33.977Z,44.58
2019-03-26T12:23:59.995Z,44.49
2019-03-26T12:26:25.999Z,44.56
2019-03-26T12:28:52.082Z,44.34
2019-03-26T12:31:18.071Z,44.50
2019-03-26T12:33:44.106Z,44.51
2019-03-26T12:36:10.100Z,44.57
2019-03-26T12:38:36.120Z,44.38
2019-03-26T12:41:02.193Z,44.62
2019-03-26T12:43:28.187Z,44.57
2019-03-26T12:45:54.188Z,44.57
2019-03-26T12:48:20.501Z,44.38
2019-03-26T12:50:46.522Z,44.43
2019-03-26T12:53:12.932Z,44.63
2019-03-26T12:55:38.520Z,44.59
2019-03-26T12:58:04.520Z,44.51
2019-03-26T13:00:30.515Z,44.23
2019-03-26T13:02:56.510Z,44.61
2019-03-26T13:05:23.327Z,44.63
2019-03-26T13:07:48.509Z,44.60
2019-03-26T13:10:14.705Z,44.60
2019-03-26T13:12:40.559Z,44.54
2019-03-26T13:15:06.559Z,44.39
2019-03-26T13:17:32.552Z,44.59
2019-03-26T13:19:58.546Z,44.63
2019-03-26T13:22:24.544Z,44.50
2019-03-26T13:24:50.546Z,44.50
2019-03-26T13:27:16.541Z,44.56
2019-03-26T13:29:42.560Z,44.65
2019-03-26T13:32:08.559Z,44.85
2019-03-26T13:34:34.550Z,45.14
2019-03-26T13:37:00.556Z,45.07
2019-03-26T13:39:26.552Z,45.12
2019-03-26T13:41:52.548Z,45.15
2019-03-26T13:44:18.547Z,45.45
2019-03-26T13:46:44.597Z,45.29
2019-03-26T13:49:10.591Z,45.41
2019-03-26T13:51:37.304Z,45.32
2019-03-26T13:54:02.638Z,45.27
2019-03-26T13:56:28.635Z,45.30
2019-03-26T13:58:54.642Z,45.33
2019-03-26T14:01:20.639Z,45.35
2019-03-26T14:03:47.202Z,45.37
2019-03-26T14:06:13.215Z,45.51
2019-03-26T14:08:39.232Z,45.61
2019-03-26T14:11:05.229Z,45.61
2019-03-26T14:13:31.231Z,45.62
2019-03-26T14:15:57.227Z,45.62
2019-03-26T14:18:23.281Z,45.61
2019-03-26T14:20:49.327Z,45.56
2019-03-26T14:23:15.316Z,45.54
2019-03-26T14:25:41.322Z,45.60
2019-03-26T14:28:07.319Z,45.59
2019-03-26T14:30:33.361Z,45.54
2019-03-26T14:32:59.358Z,45.54
2019-03-26T14:35:25.358Z,45.70
2019-03-26T14:37:51.765Z,45.75
2019-03-26T14:40:17.398Z,45.83
2019-03-26T14:42:43.409Z,45.95
2019-03-26T14:45:09.411Z,46.03
2019-03-26T14:47:35.421Z,46.10
2019-03-26T14:50:01.417Z,46.12
2019-03-26T14:52:27.436Z,46.05
2019-03-26T14:54:53.478Z,46.09
2019-03-26T14:57:19.474Z,46.02
2019-03-26T14:59:45.476Z,46.20
2019-03-26T15:02:11.579Z,46.21
2019-03-26T15:04:37.578Z,46.27
2019-03-26T15:07:03.572Z,46.26
2019-03-26T15:09:29.570Z,46.27
2019-03-26T15:11:55.563Z,46.19
2019-03-26T15:14:21.598Z,46.06
2019-03-26T15:16:47.595Z,46.01
2019-03-26T15:19:13.598Z,45.97
2019-03-26T15:21:39.588Z,45.91
2019-03-26T15:24:05.584Z,45.87
2019-03-26T15:26:31.606Z,45.86
2019-03-26T15:28:57.611Z,45.83
2019-03-26T15:31:23.611Z,45.82
2019-03-26T15:33:49.612Z,45.80
2019-03-26T15:36:15.642Z,45.75
2019-03-26T15:38:41.639Z,45.75
2019-03-26T15:41:20.728Z,45.75
2019-03-26T15:43:33.741Z,45.75
2019-03-26T15:45:59.686Z,45.70
2019-03-26T15:48:25.690Z,45.64
2019-03-26T15:50:51.699Z,45.65
2019-03-26T15:53:17.735Z,45.62
2019-03-26T15:55:43.735Z,45.61
2019-03-26T15:58:09.737Z,45.54
2019-03-26T16:00:35.752Z,45.57
2019-03-26T16:03:01.752Z,45.57
2019-03-26T16:05:27.762Z,45.52
2019-03-26T16:07:53.760Z,45.48
2019-03-26T16:10:19.797Z,45.52
2019-03-26T16:12:45.804Z,45.32
2019-03-26T16:15:11.797Z,45.31
2019-03-26T16:17:37.797Z,45.44
2019-03-26T16:20:03.795Z,45.38
2019-03-26T16:22:29.805Z,45.33
2019-03-26T16:24:55.813Z,45.42
2019-03-26T16:27:21.807Z,45.41
2019-03-26T16:29:47.812Z,45.42
2019-03-26T16:32:13.832Z,45.35
2019-03-26T16:34:39.837Z,45.22
2019-03-26T16:37:05.836Z,45.56
2019-03-26T16:39:31.842Z,45.71
2019-03-26T16:41:57.839Z,45.78
2019-03-26T16:44:23.863Z,45.86
2019-03-26T16:46:49.851Z,46.00
2019-03-26T16:49:15.875Z,46.13
2019-03-26T16:51:41.876Z,46.29
2019-03-26T16:54:07.876Z,46.12
2019-03-26T16:56:33.879Z,46.22
2019-03-26T16:58:59.879Z,46.23
2019-03-26T17:01:25.878Z,46.11
2019-03-26T17:03:51.872Z,46.37
2019-03-26T17:06:17.876Z,46.34
2019-03-26T17:08:43.872Z,46.33
2019-03-26T17:11:09.868Z,46.17
2019-03-26T17:13:35.872Z,46.29
2019-03-26T17:16:01.884Z,46.45
2019-03-26T17:18:27.894Z,46.38
2019-03-26T17:20:53.886Z,46.34
2019-03-26T17:23:19.888Z,46.46
2019-03-26T17:25:45.890Z,46.46
2019-03-26T17:28:11.921Z,46.55
2019-03-26T17:30:38.418Z,47.04
2019-03-26T17:33:04.509Z,46.72
2019-03-26T17:35:30.504Z,46.50
2019-03-26T17:38:00.166Z,46.43
2019-03-26T17:40:22.550Z,46.41
2019-03-26T17:42:48.548Z,46.25
2019-03-26T17:45:14.547Z,46.36
2019-03-26T17:47:40.559Z,46.42
2019-03-26T17:50:06.618Z,46.33
2019-03-26T17:52:32.622Z,46.17
2019-03-26T17:54:58.624Z,45.82
2019-03-26T17:57:24.640Z,45.56
2019-03-26T17:59:50.646Z,45.28
2019-03-26T18:02:16.714Z,45.06
2019-03-26T18:04:42.713Z,44.82
2019-03-26T18:07:08.719Z,44.50
2019-03-26T18:09:34.730Z,44.18
2019-03-26T18:12:00.739Z,43.95
2019-03-26T18:14:26.741Z,44.20
2019-03-26T18:16:52.739Z,43.97
2019-03-26T18:19:18.735Z,44.17
2019-03-26T18:21:51.241Z,43.63
2019-03-26T18:24:10.969Z,43.53
2019-03-26T18:26:37.003Z,43.33
2019-03-26T18:29:03.034Z,43.13
2019-03-26T18:31:29.036Z,43.03
2019-03-26T18:33:55.034Z,42.92
2019-03-26T18:36:21.042Z,42.77
2019-03-26T18:38:47.040Z,42.79
2019-03-26T18:41:13.045Z,43.48
2019-03-26T18:43:39.043Z,43.40
2019-03-26T18:46:05.071Z,43.43
2019-03-26T18:48:31.066Z,43.90
2019-03-26T18:50:57.067Z,43.74
2019-03-26T18:53:23.070Z,43.38
2019-03-26T18:55:49.062Z,43.39
2019-03-26T18:58:15.064Z,43.63
2019-03-26T19:00:41.069Z,43.16
2019-03-26T19:03:07.066Z,43.00
2019-03-26T19:05:33.059Z,43.18
2019-03-26T19:07:59.060Z,42.82
2019-03-26T19:10:25.055Z,43.16
2019-03-26T19:12:56.666Z,43.33
2019-03-26T19:15:17.075Z,43.46
2019-03-26T19:17:43.071Z,43.34
2019-03-26T19:20:09.070Z,43.15
2019-03-26T19:22:35.062Z,43.13
2019-03-26T19:25:01.067Z,43.02
2019-03-26T19:27:27.059Z,43.10
2019-03-26T19:29:53.058Z,43.29
2019-03-26T19:32:19.046Z,43.77
2019-03-26T19:34:45.117Z,43.96
2019-03-26T19:37:11.102Z,44.12
2019-03-26T19:39:37.144Z,43.94
2019-03-26T19:42:03.136Z,43.88
2019-03-26T19:44:29.135Z,44.15
2019-03-26T19:46:55.139Z,44.14
2019-03-26T19:49:21.135Z,44.17
2019-03-26T19:51:47.138Z,44.12
2019-03-26T19:54:13.133Z,44.06
2019-03-26T19:56:39.128Z,44.22
2019-03-26T19:59:05.128Z,44.61
2019-03-26T20:01:31.118Z,44.01
2019-03-26T20:03:57.136Z,44.04
2019-03-26T20:06:23.135Z,44.44
2019-03-26T20:08:49.137Z,44.61
2019-03-26T20:11:15.566Z,44.73
2019-03-26T20:13:41.162Z,44.80
2019-03-26T20:16:07.150Z,44.87
2019-03-26T20:18:33.151Z,44.91
2019-03-26T20:20:59.149Z,44.93
2019-03-26T20:23:25.143Z,44.93
2019-03-26T20:25:51.152Z,44.96
2019-03-26T20:28:17.147Z,45.00
2019-03-26T20:30:43.168Z,44.98
2019-03-26T20:33:09.164Z,45.00
2019-03-26T20:35:35.158Z,45.16
2019-03-26T20:38:01.165Z,45.44
2019-03-26T20:40:27.204Z,45.74
2019-03-26T20:42:53.203Z,46.01
2019-03-26T20:45:19.206Z,46.01
2019-03-26T20:47:45.216Z,46.48
2019-03-26T20:50:11.252Z,46.79
2019-03-26T20:52:37.251Z,46.54
2019-03-26T20:55:03.249Z,46.71
2019-03-26T20:57:29.274Z,46.80
2019-03-26T20:59:55.270Z,46.97
2019-03-26T21:02:21.275Z,47.31
2019-03-26T21:04:47.282Z,47.20
2019-03-26T21:07:13.290Z,47.16
2019-03-26T21:09:39.293Z,47.35
2019-03-26T21:12:05.288Z,47.62
2019-03-26T21:14:31.324Z,47.33
2019-03-26T21:16:57.319Z,47.62
2019-03-26T21:19:23.315Z,47.58
2019-03-26T21:21:49.321Z,47.59
2019-03-26T21:24:15.321Z,47.64
2019-03-26T21:26:41.329Z,48.03
2019-03-26T21:29:07.325Z,47.77
2019-03-26T21:31:33.348Z,47.83
2019-03-26T21:33:59.344Z,47.76
2019-03-26T21:36:25.354Z,48.04
2019-03-26T21:38:51.349Z,47.69
2019-03-26T21:41:17.343Z,47.84
2019-03-26T21:43:43.350Z,47.95
2019-03-26T21:46:09.351Z,47.88
2019-03-26T21:48:35.355Z,48.28
2019-03-26T21:51:01.359Z,47.84
2019-03-26T21:53:27.367Z,47.75
2019-03-26T21:56:05.801Z,47.95
2019-03-26T21:58:19.358Z,47.77
2019-03-26T22:00:45.353Z,48.03
2019-03-26T22:03:11.351Z,47.85
2019-03-26T22:05:37.357Z,47.99
2019-03-26T22:08:03.348Z,48.12
2019-03-26T22:10:29.352Z,48.13
2019-03-26T22:12:55.346Z,47.97
2019-03-26T22:15:21.357Z,47.75
2019-03-26T22:17:47.352Z,47.96
2019-03-26T22:20:13.342Z,47.82
2019-03-26T22:22:39.348Z,47.74
2019-03-26T22:25:05.341Z,47.66
2019-03-26T22:27:31.699Z,47.60
2019-03-26T22:29:57.611Z,47.46
2019-03-26T22:32:23.614Z,47.42
2019-03-26T22:34:49.602Z,47.39
2019-03-26T22:37:15.625Z,47.31
2019-03-26T22:39:41.620Z,47.25
2019-03-26T22:42:07.675Z,47.12
2019-03-26T22:44:33.681Z,47.13
2019-03-26T22:46:59.671Z,47.05
2019-03-26T22:49:25.675Z,46.99
2019-03-26T22:51:51.676Z,46.98
2019-03-26T22:54:17.667Z,46.95
2019-03-26T22:56:43.711Z,46.90
2019-03-26T22:59:09.704Z,46.80
2019-03-26T23:01:35.705Z,46.78
2019-03-26T23:04:01.723Z,46.71
2019-03-26T23:06:27.743Z,46.68
2019-03-26T23:08:53.741Z,46.62
2019-03-26T23:11:19.739Z,46.60
2019-03-26T23:13:45.733Z,46.54
2019-03-26T23:16:11.743Z,46.51
2019-03-26T23:18:37.789Z,46.49
2019-03-26T23:21:03.783Z,46.45
2019-03-26T23:23:29.787Z,46.41
2019-03-26T23:25:55.783Z,46.37
2019-03-26T23:28:21.780Z,46.35
2019-03-26T23:30:47.780Z,46.31
2019-03-26T23:33:14.309Z,46.27
2019-03-26T23:35:40.318Z,46.27
2019-03-26T23:38:06.392Z,46.21
2019-03-26T23:40:32.391Z,46.18
2019-03-26T23:42:58.390Z,46.20
2019-03-26T23:45:24.415Z,46.17
2019-03-26T23:47:50.402Z,46.14
2019-03-26T23:50:16.394Z,46.11
2019-03-26T23:52:42.397Z,46.09
2019-03-26T23:55:08.390Z,46.07
2019-03-26T23:57:37.283Z,46.01
